createdAt,value
2019-01-15T00:00:16.987Z,10.15
2019-01-15T00:02:45.274Z,10.90
2019-01-15T00:05:13.536Z,11.13
2019-01-15T00:07:44.746Z,12.07
2019-01-15T00:10:13.045Z,12.00
2019-01-15T00:12:41.367Z,13.20
2019-01-15T00:15:17.574Z,13.27
2019-01-15T00:17:42.343Z,15.10
2019-01-15T00:20:14.103Z,15.50
2019-01-15T00:22:42.382Z,14.30
2019-01-15T00:25:10.701Z,12.80
2019-01-15T00:27:39.013Z,12.20
2019-01-15T00:30:10.675Z,13.97
2019-01-15T00:32:41.022Z,12.07
2019-01-15T00:35:09.384Z,12.03
2019-01-15T00:37:38.238Z,11.88
2019-01-15T00:40:12.428Z,13.17
2019-01-15T00:42:40.705Z,12.57
2019-01-15T00:45:10.953Z,12.13
2019-01-15T00:47:39.235Z,13.43
2019-01-15T00:50:12.799Z,12.27
2019-01-15T00:52:41.040Z,12.00
2019-01-15T00:55:11.267Z,12.40
2019-01-15T00:57:39.642Z,12.70
2019-01-15T01:00:11.217Z,11.80
2019-01-15T01:02:39.582Z,13.00
2019-01-15T01:05:10.197Z,12.78
2019-01-15T01:07:38.460Z,13.37
2019-01-15T01:10:17.281Z,13.55
2019-01-15T01:12:45.620Z,12.73
2019-01-15T01:15:15.769Z,13.98
2019-01-15T01:17:44.025Z,14.00
2019-01-15T01:20:18.316Z,13.77
2019-01-15T01:22:46.579Z,13.97
2019-01-15T01:25:14.858Z,13.57
2019-01-15T01:27:43.239Z,13.60
2019-01-15T01:30:14.560Z,14.07
2019-01-15T01:32:42.819Z,14.03
2019-01-15T01:35:11.164Z,15.43
2019-01-15T01:37:39.443Z,17.13
2019-01-15T01:40:13.494Z,17.93
2019-01-15T01:42:44.665Z,18.93
2019-01-15T01:45:14.575Z,19.40
2019-01-15T01:47:54.017Z,21.12
2019-01-15T01:50:22.404Z,22.17
2019-01-15T01:52:52.320Z,26.57
2019-01-15T01:55:20.597Z,27.27
2019-01-15T01:57:48.896Z,26.20
2019-01-15T02:00:21.428Z,26.03
2019-01-15T02:02:50.276Z,19.87
2019-01-15T02:05:18.584Z,21.10
2019-01-15T02:07:46.876Z,21.30
2019-01-15T02:10:16.674Z,24.87
2019-01-15T02:12:45.245Z,17.93
2019-01-15T02:15:16.513Z,19.93
2019-01-15T02:17:44.857Z,22.43
2019-01-15T02:20:15.717Z,25.87
2019-01-15T02:22:43.996Z,26.57
2019-01-15T02:25:13.890Z,25.77
2019-01-15T02:27:46.669Z,24.60
2019-01-15T02:30:17.420Z,24.05
2019-01-15T02:32:45.680Z,25.13
2019-01-15T02:35:28.866Z,19.20
2019-01-15T02:37:57.211Z,17.07
2019-01-15T02:40:25.460Z,15.17
2019-01-15T02:42:53.713Z,12.80
2019-01-15T02:45:22.045Z,11.88
2019-01-15T02:47:52.011Z,12.23
2019-01-15T02:50:20.898Z,12.20
2019-01-15T02:52:49.188Z,11.35
2019-01-15T02:55:17.433Z,12.63
2019-01-15T02:57:45.683Z,12.23
2019-01-15T03:00:19.983Z,17.30
2019-01-15T03:02:48.332Z,15.60
2019-01-15T03:05:16.624Z,13.30
2019-01-15T03:07:48.064Z,15.23
2019-01-15T03:10:18.259Z,12.33
2019-01-15T03:12:54.908Z,14.60
2019-01-15T03:15:18.327Z,12.27
2019-01-15T03:17:46.615Z,13.23
2019-01-15T03:20:16.457Z,12.90
2019-01-15T03:22:45.019Z,12.53
2019-01-15T03:25:13.369Z,12.88
2019-01-15T03:27:41.619Z,13.10
2019-01-15T03:30:15.486Z,12.23
2019-01-15T03:32:43.807Z,13.33
2019-01-15T03:35:13.083Z,13.62
2019-01-15T03:37:41.361Z,14.10
2019-01-15T03:40:15.459Z,14.67
2019-01-15T03:42:43.699Z,14.37
2019-01-15T03:45:11.953Z,14.67
2019-01-15T03:47:40.345Z,14.63
2019-01-15T03:50:09.327Z,12.67
2019-01-15T03:52:37.587Z,14.00
2019-01-15T03:55:10.822Z,14.30
2019-01-15T03:57:39.117Z,14.20
2019-01-15T04:00:10.712Z,14.73
2019-01-15T04:02:39.076Z,14.03
2019-01-15T04:05:08.241Z,14.43
2019-01-15T04:07:42.347Z,14.80
2019-01-15T04:10:10.389Z,13.53
2019-01-15T04:12:38.734Z,14.03
2019-01-15T04:15:11.762Z,13.03
2019-01-15T04:17:40.133Z,11.70
2019-01-15T04:20:13.770Z,13.55
2019-01-15T04:22:42.012Z,12.67
2019-01-15T04:25:11.009Z,12.50
2019-01-15T04:27:39.257Z,12.37
2019-01-15T04:30:13.794Z,12.68
2019-01-15T04:32:42.114Z,14.43
2019-01-15T04:35:10.490Z,13.10
2019-01-15T04:37:38.721Z,12.90
2019-01-15T04:40:11.755Z,14.57
2019-01-15T04:42:40.068Z,13.70
2019-01-15T04:45:11.545Z,13.20
2019-01-15T04:47:39.931Z,14.57
2019-01-15T04:50:09.469Z,13.97
2019-01-15T04:52:39.380Z,13.40
2019-01-15T04:55:09.912Z,13.73
2019-01-15T04:57:38.215Z,13.97
2019-01-15T05:00:09.736Z,15.37
2019-01-15T05:02:39.273Z,17.23
2019-01-15T05:05:07.850Z,17.90
2019-01-15T05:07:36.104Z,16.63
2019-01-15T05:10:07.520Z,15.33
2019-01-15T05:12:35.814Z,16.20
2019-01-15T05:15:06.716Z,15.63
2019-01-15T05:17:35.018Z,18.50
2019-01-15T05:20:04.720Z,18.02
2019-01-15T05:22:32.999Z,16.80
2019-01-15T05:25:01.269Z,16.55
2019-01-15T05:27:29.566Z,18.43
2019-01-15T05:30:00.433Z,17.62
2019-01-15T05:32:28.760Z,17.27
2019-01-15T05:34:57.030Z,18.00
2019-01-15T05:37:25.367Z,17.33
2019-01-15T05:39:53.691Z,16.70
2019-01-15T05:42:22.033Z,15.55
2019-01-15T05:44:51.934Z,19.60
2019-01-15T05:47:21.886Z,18.32
2019-01-15T05:49:50.827Z,17.57
2019-01-15T05:52:20.123Z,17.98
2019-01-15T05:54:48.428Z,15.97
2019-01-15T05:57:16.844Z,16.73
2019-01-15T05:59:45.147Z,17.17
2019-01-15T06:02:13.415Z,14.98
2019-01-15T06:04:41.760Z,15.63
2019-01-15T06:07:10.036Z,15.33
2019-01-15T06:09:38.374Z,14.03
2019-01-15T06:12:06.650Z,15.77
2019-01-15T06:14:34.945Z,15.67
2019-01-15T06:17:03.288Z,15.53
2019-01-15T06:19:31.579Z,14.43
2019-01-15T06:21:59.887Z,14.73
2019-01-15T06:24:28.186Z,14.77
2019-01-15T06:26:56.452Z,14.27
2019-01-15T06:29:24.761Z,16.33
2019-01-15T06:31:53.066Z,15.03
2019-01-15T06:34:23.197Z,15.33
2019-01-15T06:36:51.491Z,15.83
2019-01-15T06:39:19.831Z,14.70
2019-01-15T06:41:48.264Z,14.20
2019-01-15T06:44:16.564Z,15.07
2019-01-15T06:46:44.822Z,14.97
2019-01-15T06:49:13.152Z,14.17
2019-01-15T06:51:41.499Z,15.40
2019-01-15T06:54:09.869Z,16.13
2019-01-15T06:56:38.133Z,16.50
2019-01-15T07:01:40.063Z,15.87
2019-01-15T07:04:08.325Z,14.18
2019-01-15T07:06:36.582Z,12.67
2019-01-15T07:09:24.165Z,15.53
2019-01-15T07:11:39.203Z,16.70
2019-01-15T07:14:07.528Z,16.23
2019-01-15T07:16:36.178Z,15.60
2019-01-15T07:19:04.449Z,15.03
2019-01-15T07:21:33.090Z,15.60
2019-01-15T07:24:03.721Z,15.47
2019-01-15T07:26:31.992Z,15.73
2019-01-15T07:29:00.284Z,16.57
2019-01-15T07:31:28.554Z,17.60
2019-01-15T07:33:56.870Z,16.70
2019-01-15T07:36:25.186Z,17.17
2019-01-15T07:38:53.721Z,16.15
2019-01-15T07:41:22.040Z,17.03
2019-01-15T07:43:52.407Z,16.10
2019-01-15T07:46:20.456Z,16.90
2019-01-15T07:48:48.726Z,16.60
2019-01-15T07:51:17.082Z,16.42
2019-01-15T07:53:45.336Z,18.57
2019-01-15T07:56:13.632Z,17.53
2019-01-15T07:58:41.899Z,15.87
2019-01-15T08:01:10.554Z,16.60
2019-01-15T08:03:38.823Z,17.10
2019-01-15T08:06:07.329Z,17.03
2019-01-15T08:08:35.672Z,12.93
2019-01-15T08:11:03.948Z,17.63
2019-01-15T08:13:32.215Z,19.65
2019-01-15T08:16:02.131Z,16.23
2019-01-15T08:18:30.518Z,18.77
2019-01-15T08:20:58.793Z,19.23
2019-01-15T08:23:27.583Z,23.27
2019-01-15T08:25:55.898Z,21.07
2019-01-15T08:28:31.024Z,22.17
2019-01-15T08:30:58.525Z,21.20
2019-01-15T08:33:26.917Z,20.97
2019-01-15T08:35:55.203Z,19.20
2019-01-15T08:38:23.465Z,20.45
2019-01-15T08:40:51.884Z,20.52
2019-01-15T08:43:20.256Z,22.63
2019-01-15T08:45:48.576Z,22.47
2019-01-15T08:48:17.158Z,22.87
2019-01-15T08:50:47.646Z,22.80
2019-01-15T08:53:17.607Z,25.70
2019-01-15T08:55:45.875Z,25.67
2019-01-15T08:58:14.121Z,25.97
2019-01-15T09:00:42.401Z,25.00
2019-01-15T09:03:12.474Z,25.97
2019-01-15T09:05:42.169Z,24.17
2019-01-15T09:08:10.613Z,22.87
2019-01-15T09:10:38.876Z,20.77
2019-01-15T09:13:07.313Z,20.27
2019-01-15T09:15:37.830Z,20.30
2019-01-15T09:18:06.102Z,20.37
2019-01-15T09:20:34.401Z,20.30
2019-01-15T09:23:02.690Z,18.60
2019-01-15T09:25:31.157Z,19.80
2019-01-15T09:27:59.405Z,18.17
2019-01-15T09:30:28.345Z,18.70
2019-01-15T09:32:56.685Z,20.93
2019-01-15T09:35:26.724Z,20.17
2019-01-15T09:37:55.197Z,17.27
2019-01-15T09:40:24.092Z,20.07
2019-01-15T09:45:55.011Z,20.27
2019-01-15T09:48:23.822Z,17.23
2019-01-15T09:50:52.072Z,18.30
2019-01-15T09:53:20.332Z,18.23
2019-01-15T09:55:48.885Z,18.10
2019-01-15T09:58:17.212Z,19.23
2019-01-15T10:00:46.059Z,17.75
2019-01-15T10:03:15.181Z,16.43
2019-01-15T10:05:43.478Z,16.67
2019-01-15T10:08:11.744Z,17.32
2019-01-15T10:10:40.028Z,16.00
2019-01-15T10:13:09.821Z,15.63
2019-01-15T10:15:38.059Z,14.97
2019-01-15T10:18:12.929Z,15.47
2019-01-15T10:20:36.426Z,14.90
2019-01-15T10:23:04.767Z,14.80
2019-01-15T10:25:33.031Z,16.83
2019-01-15T10:28:01.540Z,15.07
2019-01-15T10:30:51.713Z,15.20
2019-01-15T10:33:29.043Z,14.57
2019-01-15T10:35:57.940Z,14.37
2019-01-15T10:38:28.132Z,14.37
2019-01-15T10:40:58.278Z,15.03
2019-01-15T10:43:45.968Z,14.80
2019-01-15T10:46:14.288Z,13.87
2019-01-15T10:48:42.601Z,13.08
2019-01-15T10:51:10.933Z,14.53
2019-01-15T10:53:39.227Z,11.90
2019-01-15T10:56:07.650Z,12.10
2019-01-15T10:58:38.084Z,12.57
2019-01-15T11:01:06.355Z,12.40
2019-01-15T11:03:34.613Z,12.57
2019-01-15T11:06:03.126Z,11.27
2019-01-15T11:08:31.381Z,11.60
2019-01-15T11:10:59.675Z,11.30
2019-01-15T11:13:27.969Z,10.00
2019-01-15T11:15:56.351Z,10.00
2019-01-15T11:18:28.910Z,10.43
2019-01-15T11:20:57.829Z,11.83
2019-01-15T11:23:26.214Z,10.43
2019-01-15T11:25:54.517Z,11.73
2019-01-15T11:28:22.780Z,12.23
2019-01-15T11:30:51.036Z,12.97
2019-01-15T11:33:19.283Z,17.20
2019-01-15T11:35:47.644Z,15.53
2019-01-15T11:38:16.003Z,13.75
2019-01-15T11:40:44.285Z,10.30
2019-01-15T11:43:12.667Z,11.00
2019-01-15T11:45:41.128Z,12.00
2019-01-15T11:48:09.445Z,12.70
2019-01-15T11:50:37.692Z,13.18
2019-01-15T11:53:05.978Z,13.03
2019-01-15T11:55:34.345Z,11.68
2019-01-15T11:58:02.632Z,9.93
2019-01-15T12:00:36.348Z,10.97
2019-01-15T12:03:06.493Z,11.30
2019-01-15T12:05:47.096Z,9.73
2019-01-15T12:08:17.889Z,11.50
2019-01-15T12:11:04.286Z,9.03
2019-01-15T12:13:49.300Z,9.93
2019-01-15T12:16:35.623Z,10.87
2019-01-15T12:19:17.614Z,9.98
2019-01-15T12:22:08.686Z,10.40
2019-01-15T12:24:38.647Z,12.70
2019-01-15T12:27:08.602Z,11.57
2019-01-15T12:29:38.587Z,10.43
2019-01-15T12:32:24.420Z,10.78
2019-01-15T12:34:54.364Z,10.13
2019-01-15T12:37:40.570Z,8.60
2019-01-15T12:40:28.264Z,7.60
2019-01-15T12:43:13.335Z,8.10
2019-01-15T12:45:43.357Z,8.30
2019-01-15T12:48:19.227Z,8.70
2019-01-15T12:50:49.143Z,7.63
2019-01-15T12:53:28.154Z,6.80
2019-01-15T12:55:58.175Z,7.47
2019-01-15T12:58:28.796Z,7.05
2019-01-15T13:01:03.494Z,8.07
2019-01-15T13:03:39.609Z,8.75
2019-01-15T13:06:11.963Z,8.70
2019-01-15T13:08:41.881Z,6.67
2019-01-15T13:11:11.852Z,5.60
2019-01-15T13:13:58.017Z,4.80
2019-01-15T13:16:30.530Z,6.20
2019-01-15T13:19:16.638Z,4.37
2019-01-15T13:21:49.831Z,4.90
2019-01-15T13:24:19.823Z,6.40
2019-01-15T13:26:59.465Z,5.50
2019-01-15T13:29:35.556Z,5.80
2019-01-15T13:32:05.531Z,7.30
2019-01-15T13:34:53.802Z,5.22
2019-01-15T13:37:32.701Z,5.53
2019-01-15T13:40:03.261Z,5.40
2019-01-15T13:42:39.158Z,5.13
2019-01-15T13:45:19.758Z,5.90
2019-01-15T13:48:07.855Z,5.37
2019-01-15T13:50:37.935Z,6.20
2019-01-15T13:53:19.868Z,5.17
2019-01-15T13:55:49.850Z,5.23
2019-01-15T13:58:21.381Z,4.83
2019-01-15T14:00:51.361Z,4.93
2019-01-15T14:03:27.858Z,5.00
2019-01-15T14:06:15.946Z,4.60
2019-01-15T14:08:48.972Z,4.93
2019-01-15T14:11:21.942Z,4.70
2019-01-15T14:14:10.193Z,4.80
2019-01-15T14:16:43.849Z,5.20
2019-01-15T14:19:19.816Z,4.50
2019-01-15T14:21:57.539Z,4.60
2019-01-15T14:24:44.002Z,4.60
2019-01-15T14:27:13.889Z,3.83
2019-01-15T14:30:04.310Z,3.97
2019-01-15T14:32:34.251Z,4.53
2019-01-15T14:35:20.555Z,4.08
2019-01-15T14:37:53.370Z,5.20
2019-01-15T14:40:26.412Z,3.97
2019-01-15T14:42:58.218Z,4.20
2019-01-15T14:45:43.371Z,4.45
2019-01-15T14:48:25.503Z,4.73
2019-01-15T14:50:55.458Z,4.57
2019-01-15T14:53:28.180Z,5.15
2019-01-15T14:56:14.680Z,4.43
2019-01-15T14:58:53.953Z,4.50
2019-01-15T15:01:42.338Z,4.87
2019-01-15T15:04:21.194Z,4.80
2019-01-15T15:06:53.780Z,4.63
2019-01-15T15:09:23.693Z,4.37
2019-01-15T15:11:55.244Z,4.30
2019-01-15T15:14:41.376Z,5.57
2019-01-15T15:17:21.595Z,5.25
2019-01-15T15:19:57.079Z,5.13
2019-01-15T15:22:44.972Z,4.50
2019-01-15T15:25:20.685Z,5.20
2019-01-15T15:28:02.374Z,6.30
2019-01-15T15:30:35.349Z,4.88
2019-01-15T15:33:20.330Z,4.17
2019-01-15T15:36:06.746Z,4.10
2019-01-15T15:38:39.346Z,4.70
2019-01-15T15:41:18.273Z,4.47
2019-01-15T15:44:03.195Z,3.65
2019-01-15T15:46:33.151Z,4.20
2019-01-15T15:49:07.425Z,4.83
2019-01-15T15:51:37.336Z,3.62
2019-01-15T15:54:07.362Z,4.53
2019-01-15T15:56:46.156Z,5.60
2019-01-15T15:59:25.307Z,5.07
2019-01-15T16:02:04.711Z,4.95
2019-01-15T16:04:40.257Z,4.70
2019-01-15T16:07:19.194Z,5.00
2019-01-15T16:09:56.336Z,4.93
2019-01-15T16:12:43.509Z,5.70
2019-01-15T16:15:16.196Z,4.90
2019-01-15T16:17:46.212Z,4.23
2019-01-15T16:20:16.170Z,4.90
2019-01-15T16:22:54.939Z,4.70
2019-01-15T16:25:30.442Z,4.73
2019-01-15T16:28:02.949Z,4.90
2019-01-15T16:30:32.908Z,4.33
2019-01-15T16:33:02.799Z,4.93
2019-01-15T16:35:32.706Z,5.23
2019-01-15T16:38:17.945Z,5.33
2019-01-15T16:40:55.027Z,5.07
2019-01-15T16:43:38.302Z,4.92
2019-01-15T16:46:11.409Z,5.03
2019-01-15T16:48:47.486Z,5.05
2019-01-15T16:51:23.323Z,5.20
2019-01-15T16:54:05.169Z,5.73
2019-01-15T16:56:54.957Z,6.57
2019-01-15T16:59:32.527Z,5.27
2019-01-15T17:02:20.490Z,4.97
2019-01-15T17:04:56.653Z,5.17
2019-01-15T17:07:32.308Z,5.63
2019-01-15T17:10:07.896Z,5.40
2019-01-15T17:12:50.102Z,6.33
2019-01-15T17:15:45.819Z,5.07
2019-01-15T17:18:32.218Z,5.50
2019-01-15T17:21:14.441Z,5.47
2019-01-15T17:23:50.210Z,4.90
2019-01-15T17:26:20.275Z,6.23
2019-01-15T17:28:50.260Z,5.53
2019-01-15T17:31:20.585Z,5.27
2019-01-15T17:33:55.918Z,5.93
2019-01-15T17:36:25.911Z,6.53
2019-01-15T17:39:02.070Z,7.53
2019-01-15T17:41:50.002Z,7.10
2019-01-15T17:44:28.912Z,6.53
2019-01-15T17:47:15.108Z,7.00
2019-01-15T17:49:47.921Z,8.68
2019-01-15T17:52:25.776Z,6.43
2019-01-15T17:55:01.672Z,6.63
2019-01-15T17:57:37.730Z,7.50
2019-01-15T18:00:19.881Z,5.33
2019-01-15T18:02:50.080Z,6.92
2019-01-15T18:05:42.887Z,6.50
2019-01-15T18:08:18.966Z,6.77
2019-01-15T18:10:51.954Z,7.20
2019-01-15T18:13:26.151Z,8.00
2019-01-15T18:16:11.313Z,6.70
2019-01-15T18:18:50.424Z,8.00
2019-01-15T18:21:26.449Z,6.50
2019-01-15T18:24:07.517Z,7.08
2019-01-15T18:26:53.782Z,6.30
2019-01-15T18:29:23.726Z,6.97
2019-01-15T18:31:59.345Z,6.03
2019-01-15T18:34:38.158Z,6.53
2019-01-15T18:37:08.096Z,6.80
2019-01-15T18:39:56.098Z,7.40
2019-01-15T18:42:42.419Z,7.47
2019-01-15T18:45:12.449Z,6.20
2019-01-15T18:47:42.424Z,7.07
2019-01-15T18:50:18.840Z,6.83
2019-01-15T18:52:48.817Z,6.83
2019-01-15T18:55:18.785Z,6.63
2019-01-15T18:57:51.505Z,8.33
2019-01-15T19:00:39.607Z,5.87
2019-01-15T19:03:26.065Z,6.62
2019-01-15T19:06:01.943Z,7.43
2019-01-15T19:08:49.784Z,6.47
2019-01-15T19:11:22.432Z,6.87
2019-01-15T19:13:54.508Z,7.17
2019-01-15T19:16:39.972Z,7.33
2019-01-15T19:19:26.533Z,7.30
2019-01-15T19:22:08.640Z,6.62
2019-01-15T19:24:47.549Z,8.10
2019-01-15T19:27:23.307Z,7.87
2019-01-15T19:30:08.518Z,6.58
2019-01-15T19:32:40.884Z,6.30
2019-01-15T19:35:11.867Z,6.90
2019-01-15T19:38:05.948Z,6.80
2019-01-15T19:40:49.814Z,6.77
2019-01-15T19:43:26.310Z,6.60
2019-01-15T19:46:11.574Z,7.28
2019-01-15T19:48:46.334Z,6.23
2019-01-15T19:51:20.570Z,5.83
2019-01-15T19:53:53.123Z,6.40
2019-01-15T19:56:23.140Z,6.63
2019-01-15T19:59:06.017Z,6.03
2019-01-15T20:01:38.881Z,6.57
2019-01-15T20:04:08.819Z,6.10
2019-01-15T20:06:38.797Z,6.23
2019-01-15T20:09:12.257Z,6.67
2019-01-15T20:11:54.502Z,5.10
2019-01-15T20:14:42.665Z,5.47
2019-01-15T20:17:18.320Z,6.93
2019-01-15T20:19:58.253Z,6.37
2019-01-15T20:22:37.553Z,6.58
2019-01-15T20:25:22.695Z,6.30
2019-01-15T20:28:08.725Z,5.83
2019-01-15T20:30:44.660Z,5.67
2019-01-15T20:33:23.484Z,5.10
2019-01-15T20:35:59.239Z,6.20
2019-01-15T20:38:31.737Z,6.23
2019-01-15T20:41:12.886Z,5.57
2019-01-15T20:43:54.997Z,6.70
2019-01-15T20:46:24.916Z,9.63
2019-01-15T20:49:06.796Z,5.20
2019-01-15T20:51:42.714Z,5.92
2019-01-15T20:54:15.048Z,6.63
2019-01-15T20:56:45.002Z,6.50
2019-01-15T20:59:27.550Z,6.57
2019-01-15T21:05:28.524Z,6.23
2019-01-15T21:08:00.113Z,5.83
2019-01-15T21:10:33.627Z,8.53
2019-01-15T21:13:09.558Z,8.93
2019-01-15T21:15:46.974Z,9.77
2019-01-15T21:18:29.846Z,12.33
2019-01-15T21:21:06.838Z,11.07
2019-01-15T21:23:42.492Z,7.15
2019-01-15T21:26:15.191Z,6.80
2019-01-15T21:28:45.225Z,8.07
2019-01-15T21:31:15.120Z,7.67
2019-01-15T21:33:54.039Z,6.50
2019-01-15T21:36:33.192Z,7.90
2019-01-15T21:39:21.139Z,8.70
2019-01-15T21:41:53.693Z,8.07
2019-01-15T21:44:26.041Z,7.87
2019-01-15T21:47:11.292Z,7.62
2019-01-15T21:49:44.084Z,7.80
2019-01-15T21:52:30.628Z,8.30
2019-01-15T21:55:09.892Z,8.50
2019-01-15T21:57:48.721Z,8.43
2019-01-15T22:00:30.937Z,9.27
2019-01-15T22:03:03.456Z,9.33
2019-01-15T22:05:33.420Z,8.93
2019-01-15T22:08:03.376Z,9.38
2019-01-15T22:10:35.914Z,8.87
2019-01-15T22:13:11.937Z,9.10
2019-01-15T22:15:41.923Z,9.43
2019-01-15T22:18:20.908Z,8.70
2019-01-15T22:20:50.837Z,9.17
2019-01-15T22:23:26.837Z,11.80
2019-01-15T22:26:09.021Z,9.47
2019-01-15T22:28:44.754Z,10.17
2019-01-15T22:31:20.722Z,10.20
2019-01-15T22:34:05.866Z,8.58
2019-01-15T22:36:42.076Z,9.10
2019-01-15T22:39:14.312Z,9.97
2019-01-15T22:41:56.125Z,11.20
2019-01-15T22:44:45.726Z,9.63
2019-01-15T22:47:33.654Z,9.83
2019-01-15T22:50:03.684Z,11.50
2019-01-15T22:52:42.507Z,9.43
2019-01-15T22:55:21.524Z,10.40
2019-01-15T22:58:09.873Z,9.60
2019-01-15T23:00:59.030Z,10.85
2019-01-15T23:03:45.012Z,10.30
2019-01-15T23:06:31.535Z,10.87
2019-01-15T23:09:24.921Z,11.10
2019-01-15T23:12:01.143Z,10.37
2019-01-15T23:14:37.196Z,11.17
2019-01-15T23:17:19.047Z,11.27
2019-01-15T23:19:53.759Z,9.77
2019-01-15T23:22:41.828Z,11.70
2019-01-15T23:25:14.596Z,10.60
2019-01-15T23:27:47.274Z,11.13
2019-01-15T23:30:34.240Z,11.00
2019-01-15T23:33:05.292Z,11.73
2019-01-15T23:35:41.036Z,11.83
2019-01-15T23:38:27.210Z,12.63
2019-01-15T23:41:00.250Z,13.80
2019-01-15T23:43:33.416Z,12.03
2019-01-15T23:46:03.343Z,12.67
2019-01-15T23:48:39.084Z,13.30
2019-01-15T23:51:25.516Z,12.60
2019-01-15T23:54:01.243Z,13.13
2019-01-15T23:56:33.889Z,12.15
2019-01-15T23:59:20.024Z,12.83
